createdAt,value
2023-05-30T00:01:08.366Z,11.90
2023-05-30T00:03:36.736Z,12.00
2023-05-30T00:06:04.090Z,12.00
2023-05-30T00:08:31.402Z,12.00
2023-05-30T00:10:58.693Z,12.00
2023-05-30T00:13:29.459Z,11.90
2023-05-30T00:16:01.147Z,11.80
2023-05-30T00:18:35.985Z,11.80
2023-05-30T00:21:05.089Z,11.80
2023-05-30T00:23:32.915Z,11.80
2023-05-30T00:26:04.495Z,11.80
2023-05-30T00:28:31.883Z,11.70
2023-05-30T00:30:59.509Z,11.70
2023-05-30T00:33:27.346Z,11.60
2023-05-30T00:35:54.482Z,11.60
2023-05-30T00:38:21.648Z,11.60
2023-05-30T00:40:48.676Z,11.50
2023-05-30T00:43:20.009Z,11.30
2023-05-30T00:45:51.246Z,11.30
2023-05-30T00:48:19.150Z,11.20
2023-05-30T00:50:48.131Z,11.10
2023-05-30T00:53:16.964Z,11.00
2023-05-30T00:55:44.688Z,11.00
2023-05-30T00:58:12.809Z,11.10
2023-05-30T01:00:41.005Z,11.10
2023-05-30T01:03:10.193Z,11.20
2023-05-30T01:05:37.735Z,11.20
2023-05-30T01:08:05.056Z,11.20
2023-05-30T01:10:33.534Z,11.20
2023-05-30T01:13:27.712Z,11.20
2023-05-30T01:16:13.017Z,11.20
2023-05-30T01:19:00.418Z,11.10
2023-05-30T01:21:30.620Z,11.10
2023-05-30T01:24:20.758Z,11.10
2023-05-30T01:27:24.211Z,11.10
2023-05-30T01:29:52.317Z,11.20
2023-05-30T01:32:20.143Z,11.20
2023-05-30T01:34:49.814Z,11.20
2023-05-30T01:37:16.874Z,11.20
2023-05-30T01:39:44.191Z,11.20
2023-05-30T01:42:24.879Z,11.30
2023-05-30T01:45:28.681Z,11.40
2023-05-30T01:48:06.628Z,11.50
2023-05-30T01:50:41.843Z,11.60
2023-05-30T01:53:18.000Z,11.70
2023-05-30T01:55:46.613Z,11.80
2023-05-30T01:58:17.131Z,11.90
2023-05-30T02:00:45.469Z,11.80
2023-05-30T02:03:12.698Z,11.70
2023-05-30T02:05:39.794Z,11.50
2023-05-30T02:08:06.985Z,11.50
2023-05-30T02:10:34.108Z,11.50
2023-05-30T02:13:01.284Z,11.50
2023-05-30T02:15:28.426Z,11.50
2023-05-30T02:17:55.572Z,11.60
2023-05-30T02:20:22.693Z,11.50
2023-05-30T02:22:49.806Z,11.60
2023-05-30T02:25:16.872Z,11.60
2023-05-30T02:27:43.897Z,11.60
2023-05-30T02:30:12.023Z,11.70
2023-05-30T02:32:39.872Z,11.80
2023-05-30T02:35:07.643Z,11.80
2023-05-30T02:37:34.728Z,11.80
2023-05-30T02:40:01.915Z,11.80
2023-05-30T02:42:29.162Z,11.80
2023-05-30T02:44:56.350Z,11.80
2023-05-30T02:47:23.403Z,11.80
2023-05-30T02:49:50.779Z,11.70
2023-05-30T02:52:17.985Z,11.60
2023-05-30T02:54:53.493Z,11.50
2023-05-30T02:57:29.405Z,11.60
2023-05-30T03:00:22.529Z,11.70
2023-05-30T03:03:09.547Z,11.70
2023-05-30T03:05:40.315Z,11.70
2023-05-30T03:08:24.851Z,11.80
2023-05-30T03:10:53.177Z,11.90
2023-05-30T03:13:21.098Z,11.90
2023-05-30T03:15:49.648Z,11.90
2023-05-30T03:18:16.948Z,12.00
2023-05-30T03:20:44.865Z,12.10
2023-05-30T03:23:12.574Z,12.10
2023-05-30T03:25:40.868Z,12.20
2023-05-30T03:28:07.924Z,12.20
2023-05-30T03:30:46.718Z,12.30
2023-05-30T03:33:13.875Z,12.30
2023-05-30T03:35:40.901Z,12.30
2023-05-30T03:38:08.002Z,12.40
2023-05-30T03:40:36.722Z,12.50
2023-05-30T03:43:05.080Z,12.50
2023-05-30T03:45:32.975Z,12.60
2023-05-30T03:48:00.241Z,12.60
2023-05-30T03:50:27.311Z,12.60
2023-05-30T03:52:54.403Z,12.60
2023-05-30T03:55:21.842Z,12.60
2023-05-30T03:57:48.928Z,12.60
2023-05-30T04:00:16.466Z,12.50
2023-05-30T04:02:43.608Z,12.60
2023-05-30T04:05:10.787Z,12.60
2023-05-30T04:07:38.185Z,12.60
2023-05-30T04:10:05.591Z,12.60
2023-05-30T04:12:32.780Z,12.60
2023-05-30T04:15:00.303Z,12.70
2023-05-30T04:17:29.713Z,12.60
2023-05-30T04:19:56.992Z,12.70
2023-05-30T04:22:24.372Z,12.70
2023-05-30T04:24:51.764Z,12.70
2023-05-30T04:27:20.723Z,12.60
2023-05-30T04:29:48.113Z,12.40
2023-05-30T04:32:15.540Z,12.30
2023-05-30T04:34:44.767Z,12.30
2023-05-30T04:37:13.202Z,12.10
2023-05-30T04:39:40.485Z,12.00
2023-05-30T04:42:07.921Z,11.90
2023-05-30T04:44:39.100Z,12.00
2023-05-30T04:47:11.756Z,12.10
2023-05-30T04:49:40.875Z,12.10
2023-05-30T04:52:09.018Z,12.10
2023-05-30T04:54:36.211Z,12.20
2023-05-30T04:57:03.907Z,12.20
2023-05-30T04:59:31.035Z,12.20
2023-05-30T05:01:58.637Z,12.30
2023-05-30T05:04:26.055Z,12.20
2023-05-30T05:06:53.122Z,12.30
2023-05-30T05:09:22.389Z,12.20
2023-05-30T05:11:49.937Z,12.30
2023-05-30T05:14:17.290Z,12.30
2023-05-30T05:16:44.326Z,12.30
2023-05-30T05:19:11.431Z,12.40
2023-05-30T05:21:39.759Z,12.50
2023-05-30T05:24:08.184Z,12.50
2023-05-30T05:26:35.663Z,12.60
2023-05-30T05:29:03.134Z,12.70
2023-05-30T05:31:34.160Z,12.70
2023-05-30T05:34:01.484Z,12.80
2023-05-30T05:36:29.092Z,12.80
2023-05-30T05:38:56.188Z,12.80
2023-05-30T05:41:23.326Z,12.90
2023-05-30T05:43:50.521Z,12.90
2023-05-30T05:46:17.697Z,12.90
2023-05-30T05:48:44.849Z,12.90
2023-05-30T05:51:12.310Z,13.00
2023-05-30T05:53:39.451Z,13.00
2023-05-30T05:56:06.742Z,13.00
2023-05-30T05:58:33.841Z,13.10
2023-05-30T06:01:01.254Z,13.10
2023-05-30T06:03:28.435Z,13.10
2023-05-30T06:05:55.659Z,13.10
2023-05-30T06:08:23.032Z,13.10
2023-05-30T06:10:50.121Z,13.20
2023-05-30T06:13:17.284Z,13.10
2023-05-30T06:15:44.403Z,13.10
2023-05-30T06:18:11.646Z,13.10
2023-05-30T06:20:38.702Z,13.20
2023-05-30T06:23:05.877Z,13.20
2023-05-30T06:25:32.897Z,13.20
2023-05-30T06:27:59.954Z,13.20
2023-05-30T06:30:27.025Z,13.20
2023-05-30T06:32:54.234Z,13.30
2023-05-30T06:35:21.462Z,13.30
2023-05-30T06:37:48.631Z,13.30
2023-05-30T06:40:15.943Z,13.30
2023-05-30T06:42:42.998Z,13.40
2023-05-30T06:45:10.394Z,13.40
2023-05-30T06:47:37.647Z,13.40
2023-05-30T06:50:04.945Z,13.50
2023-05-30T06:52:32.044Z,13.50
2023-05-30T06:54:59.210Z,13.60
2023-05-30T06:57:26.900Z,13.50
2023-05-30T06:59:54.053Z,13.50
2023-05-30T07:02:21.461Z,13.50
2023-05-30T07:04:48.513Z,13.50
2023-05-30T07:07:16.001Z,13.60
2023-05-30T07:09:43.071Z,13.60
2023-05-30T07:12:11.145Z,13.70
2023-05-30T07:14:38.233Z,13.70
2023-05-30T07:17:08.888Z,13.70
2023-05-30T07:19:36.218Z,13.70
2023-05-30T07:22:03.418Z,13.70
2023-05-30T07:24:30.951Z,13.80
2023-05-30T07:26:58.168Z,13.70
2023-05-30T07:29:25.295Z,13.80
2023-05-30T07:31:52.390Z,13.80
2023-05-30T07:34:19.491Z,13.80
2023-05-30T07:36:46.714Z,13.80
2023-05-30T07:39:13.765Z,13.70
2023-05-30T07:41:40.807Z,13.80
2023-05-30T07:44:07.874Z,13.90
2023-05-30T07:46:34.969Z,13.90
2023-05-30T07:49:02.208Z,13.90
2023-05-30T07:51:29.348Z,13.90
2023-05-30T07:53:56.496Z,13.90
2023-05-30T07:56:23.702Z,14.00
2023-05-30T07:58:50.769Z,14.00
2023-05-30T08:01:17.876Z,14.20
2023-05-30T08:03:45.145Z,14.20
2023-05-30T08:06:13.613Z,14.30
2023-05-30T08:08:40.882Z,14.20
2023-05-30T08:11:08.019Z,14.20
2023-05-30T08:13:35.100Z,14.10
2023-05-30T08:16:03.077Z,14.10
2023-05-30T08:18:33.139Z,14.10
2023-05-30T08:21:02.809Z,14.10
2023-05-30T08:23:30.115Z,14.20
2023-05-30T08:25:57.888Z,14.20
2023-05-30T08:28:25.015Z,14.20
2023-05-30T08:30:52.739Z,14.20
2023-05-30T08:33:20.612Z,14.20
2023-05-30T08:35:47.806Z,14.30
2023-05-30T08:38:15.306Z,14.50
2023-05-30T08:40:44.153Z,14.50
2023-05-30T08:43:11.597Z,14.50
2023-05-30T08:45:41.905Z,14.50
2023-05-30T08:48:13.208Z,14.60
2023-05-30T08:50:41.298Z,14.60
2023-05-30T08:53:18.378Z,14.70
2023-05-30T08:55:59.248Z,14.70
2023-05-30T08:58:34.996Z,14.80
2023-05-30T09:01:03.610Z,14.80
2023-05-30T09:03:32.351Z,14.80
2023-05-30T09:05:59.870Z,14.90
2023-05-30T09:08:28.697Z,14.90
2023-05-30T09:10:58.040Z,15.00
2023-05-30T09:13:25.760Z,15.00
2023-05-30T09:15:53.250Z,15.10
2023-05-30T09:18:20.390Z,15.00
2023-05-30T09:20:47.796Z,15.00
2023-05-30T09:23:15.512Z,15.00
2023-05-30T09:25:47.846Z,15.10
2023-05-30T09:28:15.579Z,15.10
2023-05-30T09:31:01.732Z,15.10
2023-05-30T09:33:57.154Z,15.20
2023-05-30T09:36:27.661Z,15.10
2023-05-30T09:38:59.978Z,15.10
2023-05-30T09:41:28.899Z,15.10
2023-05-30T09:43:57.574Z,15.10
2023-05-30T09:46:29.064Z,15.10
2023-05-30T09:48:56.604Z,15.10
2023-05-30T09:51:28.148Z,15.10
2023-05-30T09:54:06.684Z,15.10
2023-05-30T09:56:41.448Z,15.00
2023-05-30T09:59:12.762Z,15.10
2023-05-30T10:01:49.523Z,15.20
2023-05-30T10:04:24.309Z,15.10
2023-05-30T10:06:53.527Z,15.10
2023-05-30T10:09:24.880Z,15.20
2023-05-30T10:11:53.225Z,15.20
2023-05-30T10:14:20.502Z,15.20
2023-05-30T10:16:55.548Z,15.20
2023-05-30T10:19:29.744Z,15.30
2023-05-30T10:24:29.548Z,15.30
2023-05-30T10:26:59.737Z,15.30
2023-05-30T10:29:30.559Z,15.30
2023-05-30T10:32:00.711Z,15.30
2023-05-30T10:34:48.335Z,15.30
2023-05-30T10:37:15.805Z,15.30
2023-05-30T10:40:12.300Z,15.40
2023-05-30T10:42:51.839Z,15.40
2023-05-30T10:45:21.293Z,15.40
2023-05-30T10:48:28.283Z,15.40
2023-05-30T10:53:47.502Z,15.60
2023-05-30T10:56:33.176Z,15.50
2023-05-30T10:59:01.886Z,15.50
2023-05-30T11:01:33.579Z,15.50
2023-05-30T11:04:03.356Z,15.60
2023-05-30T11:06:50.996Z,15.60
2023-05-30T11:09:19.141Z,15.60
2023-05-30T11:11:55.070Z,15.60
2023-05-30T11:14:34.637Z,15.70
2023-05-30T11:17:07.085Z,15.60
2023-05-30T11:19:41.010Z,15.60
2023-05-30T11:22:15.096Z,15.60
2023-05-30T11:24:42.834Z,15.60
2023-05-30T11:27:18.839Z,15.60
2023-05-30T11:29:49.234Z,15.60
2023-05-30T11:32:21.231Z,15.50
2023-05-30T11:35:04.030Z,15.50
2023-05-30T11:37:34.231Z,15.50
2023-05-30T11:40:02.067Z,15.50
2023-05-30T11:42:30.996Z,15.50
2023-05-30T11:44:58.148Z,15.50
2023-05-30T11:49:58.481Z,15.50
2023-05-30T11:52:26.226Z,15.50
2023-05-30T11:55:00.026Z,15.60
2023-05-30T11:57:28.304Z,15.60
2023-05-30T11:59:55.931Z,15.70
2023-05-30T12:02:33.821Z,15.80
2023-05-30T12:05:03.485Z,15.80
2023-05-30T12:07:33.755Z,15.90
2023-05-30T12:10:00.906Z,16.00
2023-05-30T12:12:28.965Z,16.00
2023-05-30T12:15:03.261Z,16.10
2023-05-30T12:17:30.601Z,15.90
2023-05-30T12:20:11.055Z,15.80
2023-05-30T12:22:46.146Z,15.80
2023-05-30T12:25:14.103Z,15.90
2023-05-30T12:27:50.241Z,16.00
2023-05-30T12:30:20.937Z,16.00
2023-05-30T12:32:48.155Z,16.10
2023-05-30T12:35:17.061Z,16.10
2023-05-30T12:37:44.750Z,16.10
2023-05-30T12:40:12.028Z,16.20
2023-05-30T12:42:46.833Z,16.20
2023-05-30T12:45:15.894Z,16.30
2023-05-30T12:47:43.011Z,16.30
2023-05-30T12:50:10.641Z,16.40
2023-05-30T12:52:37.654Z,16.50
2023-05-30T12:55:05.176Z,16.50
2023-05-30T12:57:32.370Z,16.60
2023-05-30T12:59:59.545Z,16.70
2023-05-30T13:02:27.230Z,16.80
2023-05-30T13:04:55.241Z,16.80
2023-05-30T13:07:22.749Z,16.80
2023-05-30T13:09:50.516Z,16.80
2023-05-30T13:12:18.890Z,16.90
2023-05-30T13:14:47.390Z,16.90
2023-05-30T13:17:14.461Z,17.00
2023-05-30T13:19:41.883Z,17.00
2023-05-30T13:22:10.993Z,17.00
2023-05-30T13:24:38.855Z,17.00
2023-05-30T13:27:07.639Z,16.90
2023-05-30T13:29:35.290Z,16.90
2023-05-30T13:32:02.907Z,16.90
2023-05-30T13:34:30.853Z,17.00
2023-05-30T13:36:57.914Z,17.00
2023-05-30T13:39:25.295Z,17.00
2023-05-30T13:41:52.521Z,17.10
2023-05-30T13:44:20.552Z,17.10
2023-05-30T13:46:47.678Z,17.10
2023-05-30T13:49:15.062Z,17.10
2023-05-30T13:51:43.564Z,17.10
2023-05-30T13:54:10.828Z,17.20
2023-05-30T13:56:38.049Z,17.30
2023-05-30T13:59:05.152Z,17.40
2023-05-30T14:01:32.299Z,17.40
2023-05-30T14:04:00.304Z,17.50
2023-05-30T14:06:28.236Z,17.50
2023-05-30T14:08:55.590Z,17.50
2023-05-30T14:11:22.752Z,17.60
2023-05-30T14:13:50.455Z,17.70
2023-05-30T14:16:18.025Z,17.70
2023-05-30T14:18:49.007Z,17.70
2023-05-30T14:21:16.709Z,17.60
2023-05-30T14:23:43.929Z,17.60
2023-05-30T14:26:11.462Z,17.60
2023-05-30T14:28:40.480Z,17.70
2023-05-30T14:31:09.521Z,17.70
2023-05-30T14:33:36.669Z,17.70
2023-05-30T14:36:03.940Z,17.70
2023-05-30T14:38:31.351Z,17.80
2023-05-30T14:40:58.472Z,17.80
2023-05-30T14:43:25.596Z,17.80
2023-05-30T14:45:52.665Z,17.90
2023-05-30T14:48:19.748Z,17.90
2023-05-30T14:50:46.811Z,17.90
2023-05-30T14:53:13.913Z,18.00
2023-05-30T14:55:41.708Z,18.00
2023-05-30T14:58:08.760Z,18.10
2023-05-30T15:00:36.735Z,18.10
2023-05-30T15:03:04.076Z,18.10
2023-05-30T15:05:31.533Z,18.20
2023-05-30T15:07:58.826Z,18.20
2023-05-30T15:10:26.153Z,18.20
2023-05-30T15:12:53.224Z,18.30
2023-05-30T15:15:20.416Z,18.40
2023-05-30T15:17:47.488Z,18.40
2023-05-30T15:20:14.763Z,18.50
2023-05-30T15:22:42.059Z,18.60
2023-05-30T15:25:09.487Z,18.60
2023-05-30T15:27:36.613Z,18.60
2023-05-30T15:30:04.197Z,18.50
2023-05-30T15:32:31.384Z,18.50
2023-05-30T15:34:58.924Z,18.50
2023-05-30T15:37:26.080Z,18.50
2023-05-30T15:39:53.923Z,18.60
2023-05-30T15:42:21.811Z,18.40
2023-05-30T15:44:49.110Z,18.40
2023-05-30T15:47:16.286Z,18.40
2023-05-30T15:49:43.478Z,18.50
2023-05-30T15:52:10.811Z,18.50
2023-05-30T15:54:37.980Z,18.50
2023-05-30T15:57:05.285Z,18.50
2023-05-30T15:59:32.490Z,18.50
2023-05-30T16:02:00.474Z,18.50
2023-05-30T16:04:27.949Z,18.50
2023-05-30T16:06:55.752Z,18.60
2023-05-30T16:09:22.894Z,18.70
2023-05-30T16:11:49.962Z,18.70
2023-05-30T16:14:17.245Z,18.70
2023-05-30T16:16:44.332Z,18.70
2023-05-30T16:19:11.547Z,18.60
2023-05-30T16:21:38.926Z,18.50
2023-05-30T16:24:06.969Z,18.40
2023-05-30T16:26:34.042Z,18.40
2023-05-30T16:29:01.161Z,18.30
2023-05-30T16:31:28.555Z,18.20
2023-05-30T16:33:56.514Z,18.30
2023-05-30T16:36:25.707Z,18.20
2023-05-30T16:38:52.912Z,18.20
2023-05-30T16:41:20.631Z,18.20
2023-05-30T16:43:48.687Z,18.20
2023-05-30T16:46:19.205Z,18.10
2023-05-30T16:48:46.622Z,18.10
2023-05-30T16:51:13.955Z,18.00
2023-05-30T16:53:41.139Z,17.90
2023-05-30T16:56:16.652Z,17.90
2023-05-30T16:58:45.567Z,17.80
2023-05-30T17:01:12.982Z,17.80
2023-05-30T17:03:43.488Z,17.70
2023-05-30T17:06:11.434Z,17.70
2023-05-30T17:08:39.167Z,17.70
2023-05-30T17:11:06.374Z,17.60
2023-05-30T17:13:34.068Z,17.60
2023-05-30T17:16:02.070Z,17.50
2023-05-30T17:18:29.160Z,17.50
2023-05-30T17:20:56.547Z,17.50
2023-05-30T17:23:24.349Z,17.50
2023-05-30T17:26:01.872Z,17.50
2023-05-30T17:28:30.241Z,17.50
2023-05-30T17:30:57.520Z,17.50
2023-05-30T17:33:24.918Z,17.40
2023-05-30T17:35:52.669Z,17.40
2023-05-30T17:38:19.829Z,17.30
2023-05-30T17:40:46.933Z,17.30
2023-05-30T17:43:14.222Z,17.20
2023-05-30T17:45:41.445Z,17.10
2023-05-30T17:48:12.001Z,17.10
2023-05-30T17:50:39.924Z,16.90
2023-05-30T17:53:07.576Z,16.90
2023-05-30T17:55:35.315Z,16.90
2023-05-30T17:58:03.874Z,16.90
2023-05-30T18:00:33.573Z,16.90
2023-05-30T18:03:02.536Z,17.00
2023-05-30T18:05:29.669Z,17.10
2023-05-30T18:07:57.004Z,17.10
2023-05-30T18:10:24.693Z,17.10
2023-05-30T18:12:53.113Z,17.20
2023-05-30T18:15:20.445Z,17.30
2023-05-30T18:17:47.699Z,17.50
2023-05-30T18:20:14.851Z,17.80
2023-05-30T18:22:42.998Z,18.00
2023-05-30T18:25:10.154Z,18.30
2023-05-30T18:27:37.235Z,18.60
2023-05-30T18:30:04.705Z,19.00
2023-05-30T18:32:31.858Z,19.20
2023-05-30T18:34:59.113Z,19.40
2023-05-30T18:37:27.254Z,19.60
2023-05-30T18:39:54.459Z,19.70
2023-05-30T18:42:21.544Z,19.80
2023-05-30T18:44:48.619Z,20.00
2023-05-30T18:47:16.200Z,20.10
2023-05-30T18:49:46.609Z,19.90
2023-05-30T18:52:13.768Z,19.80
2023-05-30T18:54:41.740Z,19.60
2023-05-30T18:57:09.332Z,19.40
2023-05-30T18:59:37.286Z,19.20
2023-05-30T19:02:04.804Z,19.00
2023-05-30T19:04:31.856Z,18.90
2023-05-30T19:06:59.773Z,18.80
2023-05-30T19:09:26.965Z,18.60
2023-05-30T19:11:54.158Z,18.50
2023-05-30T19:14:21.376Z,18.40
2023-05-30T19:16:48.575Z,18.20
2023-05-30T19:19:15.784Z,18.20
2023-05-30T19:21:42.865Z,18.00
2023-05-30T19:24:10.616Z,17.80
2023-05-30T19:26:37.760Z,17.70
2023-05-30T19:29:04.893Z,17.60
2023-05-30T19:31:31.965Z,17.50
2023-05-30T19:33:59.069Z,17.40
2023-05-30T19:36:26.167Z,17.40
2023-05-30T19:38:53.238Z,17.30
2023-05-30T19:41:22.045Z,17.20
2023-05-30T19:43:49.366Z,17.00
2023-05-30T19:46:16.468Z,16.90
2023-05-30T19:48:43.547Z,16.80
2023-05-30T19:51:10.759Z,16.60
2023-05-30T19:53:37.895Z,16.50
2023-05-30T19:56:05.940Z,16.50
2023-05-30T19:58:33.118Z,16.40
2023-05-30T20:01:00.739Z,16.40
2023-05-30T20:03:28.232Z,16.30
2023-05-30T20:05:55.428Z,16.30
2023-05-30T20:08:22.468Z,16.20
2023-05-30T20:10:49.787Z,16.20
2023-05-30T20:13:17.437Z,16.10
2023-05-30T20:15:44.672Z,16.10
2023-05-30T20:18:13.280Z,16.00
2023-05-30T20:20:40.994Z,16.00
2023-05-30T20:23:08.288Z,16.00
2023-05-30T20:25:35.456Z,16.00
2023-05-30T20:28:04.536Z,16.00
2023-05-30T20:30:32.569Z,15.90
2023-05-30T20:33:01.274Z,15.90
2023-05-30T20:35:28.640Z,15.80
2023-05-30T20:37:55.915Z,15.80
2023-05-30T20:40:23.134Z,15.70
2023-05-30T20:42:50.784Z,15.70
2023-05-30T20:45:17.977Z,15.70
2023-05-30T20:47:45.315Z,15.70
2023-05-30T20:50:12.759Z,15.60
2023-05-30T20:52:39.933Z,15.60
2023-05-30T20:55:07.381Z,15.60
2023-05-30T20:57:34.506Z,15.60
2023-05-30T21:00:01.629Z,15.60
2023-05-30T21:02:28.778Z,15.50
2023-05-30T21:04:56.156Z,15.50
2023-05-30T21:07:23.293Z,15.40
2023-05-30T21:09:50.417Z,15.40
2023-05-30T21:12:17.469Z,15.40
2023-05-30T21:14:44.543Z,15.40
2023-05-30T21:17:11.697Z,15.40
2023-05-30T21:19:39.250Z,15.40
2023-05-30T21:22:06.404Z,15.40
2023-05-30T21:24:34.467Z,15.30
2023-05-30T21:27:02.879Z,15.30
2023-05-30T21:29:30.743Z,15.30
2023-05-30T21:31:57.956Z,15.20
2023-05-30T21:34:25.256Z,15.20
2023-05-30T21:36:52.368Z,15.10
2023-05-30T21:39:19.668Z,15.10
2023-05-30T21:41:46.779Z,15.10
2023-05-30T21:44:13.918Z,15.10
2023-05-30T21:46:40.931Z,15.00
2023-05-30T21:49:08.138Z,15.00
2023-05-30T21:51:35.196Z,14.90
2023-05-30T21:54:03.706Z,14.80
2023-05-30T21:56:31.446Z,14.80
2023-05-30T21:58:59.860Z,14.80
2023-05-30T22:01:27.098Z,14.90
2023-05-30T22:03:54.479Z,14.90
2023-05-30T22:06:21.982Z,14.90
2023-05-30T22:08:52.027Z,14.90
2023-05-30T22:11:19.308Z,14.80
2023-05-30T22:13:46.422Z,14.80
2023-05-30T22:16:14.822Z,14.80
2023-05-30T22:18:42.000Z,14.90
2023-05-30T22:21:09.072Z,14.90
2023-05-30T22:23:36.129Z,14.80
2023-05-30T22:26:03.215Z,14.80
2023-05-30T22:28:30.527Z,14.80
2023-05-30T22:30:57.897Z,14.80
2023-05-30T22:33:25.081Z,14.80
2023-05-30T22:35:52.270Z,14.80
2023-05-30T22:38:19.359Z,14.80
2023-05-30T22:40:46.472Z,14.80
2023-05-30T22:43:13.607Z,14.80
2023-05-30T22:45:40.787Z,14.80
2023-05-30T22:48:07.931Z,14.80
2023-05-30T22:50:35.031Z,14.80
2023-05-30T22:53:02.083Z,14.80
2023-05-30T22:55:29.262Z,14.90
2023-05-30T22:57:56.481Z,14.90
2023-05-30T23:00:23.644Z,14.90
2023-05-30T23:02:51.146Z,14.90
2023-05-30T23:05:22.086Z,14.90
2023-05-30T23:07:49.764Z,14.70
2023-05-30T23:10:20.392Z,14.60
2023-05-30T23:12:48.151Z,14.60
2023-05-30T23:15:15.321Z,14.60
2023-05-30T23:17:42.500Z,14.60
2023-05-30T23:20:10.127Z,14.50
2023-05-30T23:22:37.340Z,14.60
2023-05-30T23:25:04.658Z,14.60
2023-05-30T23:27:31.793Z,14.60
2023-05-30T23:29:58.990Z,14.60
2023-05-30T23:32:27.901Z,14.60
2023-05-30T23:34:55.498Z,14.70
2023-05-30T23:37:22.651Z,14.70
2023-05-30T23:39:49.741Z,14.60
2023-05-30T23:42:16.785Z,14.60
2023-05-30T23:44:43.936Z,14.60
2023-05-30T23:47:11.100Z,14.60
2023-05-30T23:49:38.208Z,14.60
2023-05-30T23:52:05.652Z,14.60
2023-05-30T23:54:32.722Z,14.60
2023-05-30T23:56:59.798Z,14.60
2023-05-30T23:59:26.928Z,14.60
